Terminal Aerodrome Forecast
Issued by NWS

Home | Current Version | Previous Version | Text Only | Print | Product List | Glossary On
Versions: 1 2 3 4 5 6 7 8 9 10 11 12 13
958
FTUS45 KRIW 201139
TAFLND
TAF
KLND 201139Z 2012/2112 VRB05KT P6SM BKN050
     FM201900 VRB06KT P6SM SCT060
     FM210900 29005KT P6SM BKN060=

USA.gov is the U.S. government's official web portal to all federal, state and local government web resources and services.